sensor_id;sensor_type;location;lat;lon;timestamp;pressure;altitude;pressure_sealevel;temperature;humidity
24892;BME280;12954;50.688;10.908;2023-04-07T00:02:04;95581.25;;;1.50;45.07
24892;BME280;12954;50.688;10.908;2023-04-07T00:04:34;95584.94;;;1.49;45.17
24892;BME280;12954;50.688;10.908;2023-04-07T00:07:03;95584.34;;;1.47;45.24
24892;BME280;12954;50.688;10.908;2023-04-07T00:09:31;95584.34;;;1.47;45.35
24892;BME280;12954;50.688;10.908;2023-04-07T00:11:59;95584.22;;;1.42;45.41
24892;BME280;12954;50.688;10.908;2023-04-07T00:14:28;95578.06;;;1.41;45.44
24892;BME280;12954;50.688;10.908;2023-04-07T00:16:59;95577.13;;;1.36;45.82
24892;BME280;12954;50.688;10.908;2023-04-07T00:19:28;95558.66;;;1.23;45.84
24892;BME280;12954;50.688;10.908;2023-04-07T00:21:57;95549.38;;;1.14;45.99
24892;BME280;12954;50.688;10.908;2023-04-07T00:24:26;95578.00;;;1.30;45.99
24892;BME280;12954;50.688;10.908;2023-04-07T00:27:00;95585.84;;;1.25;46.04
24892;BME280;12954;50.688;10.908;2023-04-07T00:29:29;95570.91;;;1.24;46.12
24892;BME280;12954;50.688;10.908;2023-04-07T00:31:57;95552.47;;;1.11;46.15
24892;BME280;12954;50.688;10.908;2023-04-07T00:34:26;95568.94;;;1.19;46.23
24892;BME280;12954;50.688;10.908;2023-04-07T00:36:54;95568.13;;;1.19;46.38
24892;BME280;12954;50.688;10.908;2023-04-07T00:39:24;95568.56;;;1.16;46.38
24892;BME280;12954;50.688;10.908;2023-04-07T00:41:53;95556.38;;;1.08;46.36
24892;BME280;12954;50.688;10.908;2023-04-07T00:44:22;95564.94;;;1.10;46.51
24892;BME280;12954;50.688;10.908;2023-04-07T00:46:51;95570.91;;;1.05;46.74
24892;BME280;12954;50.688;10.908;2023-04-07T00:49:19;95568.69;;;1.02;46.71
24892;BME280;12954;50.688;10.908;2023-04-07T00:51:48;95564.44;;;1.01;46.91
24892;BME280;12954;50.688;10.908;2023-04-07T00:54:17;95574.44;;;0.99;46.83
24892;BME280;12954;50.688;10.908;2023-04-07T00:56:47;95527.72;;;0.74;46.77
24892;BME280;12954;50.688;10.908;2023-04-07T00:59:16;95558.94;;;0.96;47.13
24892;BME280;12954;50.688;10.908;2023-04-07T01:01:49;95570.38;;;0.97;47.12
24892;BME280;12954;50.688;10.908;2023-04-07T01:04:26;95552.28;;;0.87;47.37
24892;BME280;12954;50.688;10.908;2023-04-07T01:07:04;95559.38;;;0.93;47.46
24892;BME280;12954;50.688;10.908;2023-04-07T01:09:36;95489.16;;;0.53;47.25
24892;BME280;12954;50.688;10.908;2023-04-07T01:12:16;95544.81;;;0.84;47.63
24892;BME280;12954;50.688;10.908;2023-04-07T01:14:51;95551.72;;;0.85;47.62
24892;BME280;12954;50.688;10.908;2023-04-07T01:17:24;95496.09;;;0.54;47.78
24892;BME280;12954;50.688;10.908;2023-04-07T01:19:58;95533.84;;;0.74;47.77
24892;BME280;12954;50.688;10.908;2023-04-07T01:22:36;95553.72;;;0.90;47.76
24892;BME280;12954;50.688;10.908;2023-04-07T01:25:22;95557.25;;;1.02;47.54
24892;BME280;12954;50.688;10.908;2023-04-07T01:28:26;95552.94;;;1.07;47.72
24892;BME280;12954;50.688;10.908;2023-04-07T01:31:00;95544.50;;;1.11;47.13
24892;BME280;12954;50.688;10.908;2023-04-07T01:33:30;95528.78;;;0.91;47.15
24892;BME280;12954;50.688;10.908;2023-04-07T01:36:02;95547.25;;;1.04;47.42
24892;BME280;12954;50.688;10.908;2023-04-07T01:38:32;95542.88;;;1.09;47.12
24892;BME280;12954;50.688;10.908;2023-04-07T01:41:01;95548.94;;;1.17;47.04
24892;BME280;12954;50.688;10.908;2023-04-07T01:43:31;95544.34;;;1.24;46.67
24892;BME280;12954;50.688;10.908;2023-04-07T01:46:02;95547.75;;;1.31;46.76
24892;BME280;12954;50.688;10.908;2023-04-07T01:48:32;95545.00;;;1.37;46.45
24892;BME280;12954;50.688;10.908;2023-04-07T01:51:03;95497.47;;;1.11;46.21
24892;BME280;12954;50.688;10.908;2023-04-07T01:53:33;95545.22;;;1.54;46.07
24892;BME280;12954;50.688;10.908;2023-04-07T01:56:04;95532.63;;;1.61;46.12
24892;BME280;12954;50.688;10.908;2023-04-07T01:58:32;95539.69;;;1.67;45.78
24892;BME280;12954;50.688;10.908;2023-04-07T02:01:02;95524.19;;;1.64;45.59
24892;BME280;12954;50.688;10.908;2023-04-07T02:03:36;95548.53;;;1.79;45.35
24892;BME280;12954;50.688;10.908;2023-04-07T02:06:07;95542.94;;;1.87;45.28
24892;BME280;12954;50.688;10.908;2023-04-07T02:08:38;95537.16;;;1.90;45.17
24892;BME280;12954;50.688;10.908;2023-04-07T02:11:10;95531.19;;;1.95;45.03
24892;BME280;12954;50.688;10.908;2023-04-07T02:13:41;95537.19;;;2.02;44.89
24892;BME280;12954;50.688;10.908;2023-04-07T02:16:12;95528.53;;;2.06;44.87
24892;BME280;12954;50.688;10.908;2023-04-07T02:18:42;95518.81;;;2.00;44.84
24892;BME280;12954;50.688;10.908;2023-04-07T02:21:13;95495.47;;;1.84;44.91
24892;BME280;12954;50.688;10.908;2023-04-07T02:23:42;95524.72;;;2.14;44.55
24892;BME280;12954;50.688;10.908;2023-04-07T02:26:11;95527.75;;;2.17;44.67
24892;BME280;12954;50.688;10.908;2023-04-07T02:28:39;95521.97;;;2.20;44.41
24892;BME280;12954;50.688;10.908;2023-04-07T02:31:08;95515.63;;;2.22;44.33
24892;BME280;12954;50.688;10.908;2023-04-07T02:33:41;95471.03;;;1.94;44.27
24892;BME280;12954;50.688;10.908;2023-04-07T02:36:09;95487.69;;;2.01;44.32
24892;BME280;12954;50.688;10.908;2023-04-07T02:38:38;95458.00;;;1.74;44.25
24892;BME280;12954;50.688;10.908;2023-04-07T02:41:06;95480.38;;;1.96;44.28
24892;BME280;12954;50.688;10.908;2023-04-07T02:43:35;95505.78;;;2.22;44.34
24892;BME280;12954;50.688;10.908;2023-04-07T02:46:03;95523.72;;;2.27;44.27
24892;BME280;12954;50.688;10.908;2023-04-07T02:48:31;95517.59;;;2.26;44.25
24892;BME280;12954;50.688;10.908;2023-04-07T02:51:02;95521.63;;;2.29;44.29
24892;BME280;12954;50.688;10.908;2023-04-07T02:53:30;95507.28;;;2.30;44.33
24892;BME280;12954;50.688;10.908;2023-04-07T02:55:59;95515.53;;;2.28;44.49
24892;BME280;12954;50.688;10.908;2023-04-07T02:58:27;95507.28;;;2.30;44.56
24892;BME280;12954;50.688;10.908;2023-04-07T03:00:55;95508.94;;;2.31;44.65
24892;BME280;12954;50.688;10.908;2023-04-07T03:03:24;95441.28;;;1.85;44.76
24892;BME280;12954;50.688;10.908;2023-04-07T03:05:53;95504.53;;;2.36;44.75
24892;BME280;12954;50.688;10.908;2023-04-07T03:08:23;95505.91;;;2.39;44.87
24892;BME280;12954;50.688;10.908;2023-04-07T03:10:52;95505.47;;;2.42;44.94
24892;BME280;12954;50.688;10.908;2023-04-07T03:13:20;95504.19;;;2.44;45.13
24892;BME280;12954;50.688;10.908;2023-04-07T03:15:48;95474.19;;;2.26;45.11
24892;BME280;12954;50.688;10.908;2023-04-07T03:18:17;95479.66;;;2.31;45.24
24892;BME280;12954;50.688;10.908;2023-04-07T03:20:47;95460.19;;;2.18;45.76
24892;BME280;12954;50.688;10.908;2023-04-07T03:23:15;95500.81;;;2.49;45.63
24892;BME280;12954;50.688;10.908;2023-04-07T03:25:45;95498.16;;;2.49;45.88
24892;BME280;12954;50.688;10.908;2023-04-07T03:28:14;95497.13;;;2.50;45.96
24892;BME280;12954;50.688;10.908;2023-04-07T03:30:42;95495.50;;;2.49;46.26
24892;BME280;12954;50.688;10.908;2023-04-07T03:33:11;95486.94;;;2.47;46.24
24892;BME280;12954;50.688;10.908;2023-04-07T03:35:39;95487.28;;;2.50;46.51
24892;BME280;12954;50.688;10.908;2023-04-07T03:38:08;95490.16;;;2.49;46.68
24892;BME280;12954;50.688;10.908;2023-04-07T03:40:36;95488.56;;;2.48;46.83
24892;BME280;12954;50.688;10.908;2023-04-07T03:43:07;95491.78;;;2.50;47.01
24892;BME280;12954;50.688;10.908;2023-04-07T03:45:40;95495.50;;;2.49;47.07
24892;BME280;12954;50.688;10.908;2023-04-07T03:48:08;95490.97;;;2.49;47.13
24892;BME280;12954;50.688;10.908;2023-04-07T03:50:38;95488.56;;;2.48;47.39
24892;BME280;12954;50.688;10.908;2023-04-07T03:53:07;95491.22;;;2.48;47.46
24892;BME280;12954;50.688;10.908;2023-04-07T03:55:35;95486.25;;;2.40;47.75
24892;BME280;12954;50.688;10.908;2023-04-07T03:58:04;95489.84;;;2.45;47.99
24892;BME280;12954;50.688;10.908;2023-04-07T04:00:34;95489.69;;;2.52;47.74
24892;BME280;12954;50.688;10.908;2023-04-07T04:03:02;95486.13;;;2.46;48.09
24892;BME280;12954;50.688;10.908;2023-04-07T04:05:31;95486.00;;;2.41;48.16
24892;BME280;12954;50.688;10.908;2023-04-07T04:07:59;95468.19;;;2.18;48.29
24892;BME280;12954;50.688;10.908;2023-04-07T04:10:28;95489.25;;;2.32;48.48
24892;BME280;12954;50.688;10.908;2023-04-07T04:12:56;95442.47;;;2.01;48.61
24892;BME280;12954;50.688;10.908;2023-04-07T04:15:26;95491.78;;;2.27;48.62
24892;BME280;12954;50.688;10.908;2023-04-07T04:17:56;95492.59;;;2.27;48.89
24892;BME280;12954;50.688;10.908;2023-04-07T04:20:24;95424.88;;;1.88;49.14
24892;BME280;12954;50.688;10.908;2023-04-07T04:22:53;95487.28;;;2.27;49.08
24892;BME280;12954;50.688;10.908;2023-04-07T04:25:21;95490.75;;;2.28;49.34
24892;BME280;12954;50.688;10.908;2023-04-07T04:27:50;95486.00;;;2.30;49.45
24892;BME280;12954;50.688;10.908;2023-04-07T04:30:18;95486.56;;;2.32;49.60
24892;BME280;12954;50.688;10.908;2023-04-07T04:32:46;95482.88;;;2.21;49.85
24892;BME280;12954;50.688;10.908;2023-04-07T04:35:17;95487.97;;;2.34;49.85
24892;BME280;12954;50.688;10.908;2023-04-07T04:37:45;95493.28;;;2.34;49.91
24892;BME280;12954;50.688;10.908;2023-04-07T04:40:14;95490.88;;;2.33;49.96
24892;BME280;12954;50.688;10.908;2023-04-07T04:42:42;95482.16;;;2.26;50.02
24892;BME280;12954;50.688;10.908;2023-04-07T04:45:11;95493.03;;;2.12;50.20
24892;BME280;12954;50.688;10.908;2023-04-07T04:47:39;95494.28;;;1.98;50.23
24892;BME280;12954;50.688;10.908;2023-04-07T04:50:10;95492.81;;;1.84;50.50
24892;BME280;12954;50.688;10.908;2023-04-07T04:52:40;95411.50;;;1.24;50.57
24892;BME280;12954;50.688;10.908;2023-04-07T04:55:09;95486.97;;;1.64;50.68
24892;BME280;12954;50.688;10.908;2023-04-07T04:57:40;95496.25;;;1.73;50.54
24892;BME280;12954;50.688;10.908;2023-04-07T05:00:09;95467.19;;;1.48;50.67
24892;BME280;12954;50.688;10.908;2023-04-07T05:02:38;95494.63;;;1.60;50.66
24892;BME280;12954;50.688;10.908;2023-04-07T05:05:07;95501.50;;;1.50;51.01
24892;BME280;12954;50.688;10.908;2023-04-07T05:07:35;95494.88;;;1.41;51.03
24892;BME280;12954;50.688;10.908;2023-04-07T05:10:08;95497.47;;;1.29;51.17
24892;BME280;12954;50.688;10.908;2023-04-07T05:12:36;95496.16;;;1.20;51.15
24892;BME280;12954;50.688;10.908;2023-04-07T05:15:06;95499.88;;;1.19;51.12
24892;BME280;12954;50.688;10.908;2023-04-07T05:17:34;95419.13;;;0.72;50.86
24892;BME280;12954;50.688;10.908;2023-04-07T05:20:03;95434.63;;;0.75;51.11
24892;BME280;12954;50.688;10.908;2023-04-07T05:22:32;95492.84;;;1.06;51.30
24892;BME280;12954;50.688;10.908;2023-04-07T05:25:00;95457.63;;;0.81;51.34
24892;BME280;12954;50.688;10.908;2023-04-07T05:27:30;95492.41;;;1.09;51.33
24892;BME280;12954;50.688;10.908;2023-04-07T05:29:59;95492.53;;;1.15;51.23
24892;BME280;12954;50.688;10.908;2023-04-07T05:32:27;95495.56;;;1.18;51.14
24892;BME280;12954;50.688;10.908;2023-04-07T05:34:56;95480.97;;;1.09;51.24
24892;BME280;12954;50.688;10.908;2023-04-07T05:37:24;95405.78;;;0.61;51.43
24892;BME280;12954;50.688;10.908;2023-04-07T05:39:53;95460.69;;;0.96;51.61
24892;BME280;12954;50.688;10.908;2023-04-07T05:42:22;95495.00;;;1.16;51.66
24892;BME280;12954;50.688;10.908;2023-04-07T05:44:52;95483.56;;;1.16;51.36
24892;BME280;12954;50.688;10.908;2023-04-07T05:47:20;95497.34;;;1.24;51.44
24892;BME280;12954;50.688;10.908;2023-04-07T05:49:48;95501.38;;;1.27;51.45
24892;BME280;12954;50.688;10.908;2023-04-07T05:52:17;95494.81;;;1.29;51.34
24892;BME280;12954;50.688;10.908;2023-04-07T05:54:45;95483.38;;;1.29;51.43
24892;BME280;12954;50.688;10.908;2023-04-07T05:57:14;95499.97;;;1.42;51.41
24892;BME280;12954;50.688;10.908;2023-04-07T05:59:42;95489.88;;;1.33;51.20
24892;BME280;12954;50.688;10.908;2023-04-07T06:02:13;95496.91;;;1.57;51.35
24892;BME280;12954;50.688;10.908;2023-04-07T06:04:42;95502.00;;;1.58;51.36
24892;BME280;12954;50.688;10.908;2023-04-07T06:07:10;95500.28;;;1.64;51.43
24892;BME280;12954;50.688;10.908;2023-04-07T06:09:38;95505.75;;;1.69;51.56
24892;BME280;12954;50.688;10.908;2023-04-07T06:12:08;95504.84;;;1.75;51.51
24892;BME280;12954;50.688;10.908;2023-04-07T06:14:38;95452.50;;;1.46;51.91
24892;BME280;12954;50.688;10.908;2023-04-07T06:17:06;95508.50;;;1.92;51.55
24892;BME280;12954;50.688;10.908;2023-04-07T06:19:37;95506.91;;;2.03;51.48
24892;BME280;12954;50.688;10.908;2023-04-07T06:22:05;95497.53;;;2.00;51.69
24892;BME280;12954;50.688;10.908;2023-04-07T06:24:34;95509.13;;;2.17;51.69
24892;BME280;12954;50.688;10.908;2023-04-07T06:27:02;95510.41;;;2.27;51.82
24892;BME280;12954;50.688;10.908;2023-04-07T06:29:31;95457.75;;;2.05;51.68
24892;BME280;12954;50.688;10.908;2023-04-07T06:32:00;95502.81;;;2.42;51.69
24892;BME280;12954;50.688;10.908;2023-04-07T06:34:28;95478.59;;;2.32;51.64
24892;BME280;12954;50.688;10.908;2023-04-07T06:36:58;95503.63;;;2.54;51.64
24892;BME280;12954;50.688;10.908;2023-04-07T06:39:27;95500.84;;;2.60;51.94
24892;BME280;12954;50.688;10.908;2023-04-07T06:41:55;95483.91;;;2.55;51.52
24892;BME280;12954;50.688;10.908;2023-04-07T06:44:24;95507.56;;;2.74;51.73
24892;BME280;12954;50.688;10.908;2023-04-07T06:46:52;95510.06;;;2.81;51.56
24892;BME280;12954;50.688;10.908;2023-04-07T06:49:21;95501.41;;;2.86;51.85
24892;BME280;12954;50.688;10.908;2023-04-07T06:51:49;95391.69;;;2.14;51.64
24892;BME280;12954;50.688;10.908;2023-04-07T06:54:19;95514.69;;;2.97;51.53
24892;BME280;12954;50.688;10.908;2023-04-07T06:56:48;95516.19;;;3.05;51.66
24892;BME280;12954;50.688;10.908;2023-04-07T06:59:19;95509.13;;;3.10;51.67
24892;BME280;12954;50.688;10.908;2023-04-07T07:01:47;95510.84;;;3.16;51.62
24892;BME280;12954;50.688;10.908;2023-04-07T07:04:16;95504.56;;;3.22;51.81
24892;BME280;12954;50.688;10.908;2023-04-07T07:06:45;95515.91;;;3.29;51.66
24892;BME280;12954;50.688;10.908;2023-04-07T07:09:13;95512.88;;;3.38;51.85
24892;BME280;12954;50.688;10.908;2023-04-07T07:11:43;95509.25;;;3.44;51.88
24892;BME280;12954;50.688;10.908;2023-04-07T07:14:11;95513.66;;;3.50;51.60
24892;BME280;12954;50.688;10.908;2023-04-07T07:16:40;95510.03;;;3.56;51.64
24892;BME280;12954;50.688;10.908;2023-04-07T07:19:08;95513.63;;;3.61;51.72
24892;BME280;12954;50.688;10.908;2023-04-07T07:21:37;95462.69;;;3.34;51.78
24892;BME280;12954;50.688;10.908;2023-04-07T07:24:05;95518.72;;;3.63;51.58
24892;BME280;12954;50.688;10.908;2023-04-07T07:26:34;95492.06;;;3.63;51.70
24892;BME280;12954;50.688;10.908;2023-04-07T07:29:03;95486.41;;;3.76;51.65
24892;BME280;12954;50.688;10.908;2023-04-07T07:31:32;95531.44;;;4.01;51.81
24892;BME280;12954;50.688;10.908;2023-04-07T07:34:01;95521.88;;;4.05;51.73
24892;BME280;12954;50.688;10.908;2023-04-07T07:36:29;95528.13;;;4.10;51.95
24892;BME280;12954;50.688;10.908;2023-04-07T07:38:58;95454.25;;;3.82;51.46
24892;BME280;12954;50.688;10.908;2023-04-07T07:41:26;95528.75;;;4.45;51.49
24892;BME280;12954;50.688;10.908;2023-04-07T07:43:55;95528.69;;;4.40;51.39
24892;BME280;12954;50.688;10.908;2023-04-07T07:46:24;95456.56;;;4.07;51.46
24892;BME280;12954;50.688;10.908;2023-04-07T07:48:53;95526.25;;;4.56;51.50
24892;BME280;12954;50.688;10.908;2023-04-07T07:51:22;95527.88;;;4.57;51.43
24892;BME280;12954;50.688;10.908;2023-04-07T07:53:51;95534.91;;;4.63;51.70
24892;BME280;12954;50.688;10.908;2023-04-07T07:56:20;95544.63;;;4.69;51.33
24892;BME280;12954;50.688;10.908;2023-04-07T07:58:49;95541.28;;;4.78;51.52
24892;BME280;12954;50.688;10.908;2023-04-07T08:01:18;95539.44;;;4.79;51.12
24892;BME280;12954;50.688;10.908;2023-04-07T08:03:48;95540.66;;;4.88;51.11
24892;BME280;12954;50.688;10.908;2023-04-07T08:06:17;95537.16;;;5.04;51.22
24892;BME280;12954;50.688;10.908;2023-04-07T08:08:45;95514.63;;;5.00;50.50
24892;BME280;12954;50.688;10.908;2023-04-07T08:11:14;95533.19;;;5.28;50.08
24892;BME280;12954;50.688;10.908;2023-04-07T08:13:43;95520.28;;;5.04;50.30
24892;BME280;12954;50.688;10.908;2023-04-07T08:16:12;95537.91;;;5.21;50.58
24892;BME280;12954;50.688;10.908;2023-04-07T08:18:41;95540.16;;;5.29;50.74
24892;BME280;12954;50.688;10.908;2023-04-07T08:21:11;95541.28;;;5.33;50.52
24892;BME280;12954;50.688;10.908;2023-04-07T08:23:39;95542.16;;;5.39;50.64
24892;BME280;12954;50.688;10.908;2023-04-07T08:26:08;95353.72;;;4.38;50.10
24892;BME280;12954;50.688;10.908;2023-04-07T08:28:36;95542.97;;;5.61;50.05
24892;BME280;12954;50.688;10.908;2023-04-07T08:31:05;95546.63;;;5.77;49.81
24892;BME280;12954;50.688;10.908;2023-04-07T08:33:34;95549.38;;;5.82;49.43
24892;BME280;12954;50.688;10.908;2023-04-07T08:36:03;95549.38;;;5.82;49.42
24892;BME280;12954;50.688;10.908;2023-04-07T08:38:33;95543.50;;;5.85;49.44
24892;BME280;12954;50.688;10.908;2023-04-07T08:41:03;95546.34;;;6.00;48.75
24892;BME280;12954;50.688;10.908;2023-04-07T08:43:35;95538.38;;;6.05;48.50
24892;BME280;12954;50.688;10.908;2023-04-07T08:46:05;95502.00;;;5.82;48.48
24892;BME280;12954;50.688;10.908;2023-04-07T08:48:37;95543.78;;;6.10;48.08
24892;BME280;12954;50.688;10.908;2023-04-07T08:51:07;95548.06;;;6.11;48.29
24892;BME280;12954;50.688;10.908;2023-04-07T08:53:40;95518.47;;;5.96;47.86
24892;BME280;12954;50.688;10.908;2023-04-07T08:56:11;95545.59;;;6.26;47.52
24892;BME280;12954;50.688;10.908;2023-04-07T08:58:39;95547.22;;;6.27;47.16
24892;BME280;12954;50.688;10.908;2023-04-07T09:01:09;95542.94;;;6.31;47.00
24892;BME280;12954;50.688;10.908;2023-04-07T09:03:38;95544.72;;;6.47;46.44
24892;BME280;12954;50.688;10.908;2023-04-07T09:06:08;95479.50;;;6.10;45.71
24892;BME280;12954;50.688;10.908;2023-04-07T09:08:38;95541.03;;;6.53;46.12
24892;BME280;12954;50.688;10.908;2023-04-07T09:11:07;95548.56;;;6.56;46.00
24892;BME280;12954;50.688;10.908;2023-04-07T09:13:35;95549.63;;;6.60;45.37
24892;BME280;12954;50.688;10.908;2023-04-07T09:16:04;95550.78;;;6.69;45.25
24892;BME280;12954;50.688;10.908;2023-04-07T09:18:32;95545.53;;;6.80;44.65
24892;BME280;12954;50.688;10.908;2023-04-07T09:21:02;95538.84;;;6.82;44.79
24892;BME280;12954;50.688;10.908;2023-04-07T09:23:32;95542.34;;;6.88;44.55
24892;BME280;12954;50.688;10.908;2023-04-07T09:28:57;95540.88;;;7.07;43.99
24892;BME280;12954;50.688;10.908;2023-04-07T09:31:45;95529.69;;;7.20;42.51
24892;BME280;12954;50.688;10.908;2023-04-07T09:34:24;95516.06;;;7.27;41.76
24892;BME280;12954;50.688;10.908;2023-04-07T09:36:53;95537.31;;;7.38;42.12
24892;BME280;12954;50.688;10.908;2023-04-07T09:39:21;95537.09;;;7.45;42.19
24892;BME280;12954;50.688;10.908;2023-04-07T09:41:50;95531.75;;;7.55;41.96
24892;BME280;12954;50.688;10.908;2023-04-07T09:44:21;95526.75;;;7.73;41.23
24892;BME280;12954;50.688;10.908;2023-04-07T09:46:51;95537.50;;;7.78;40.62
24892;BME280;12954;50.688;10.908;2023-04-07T09:49:20;95532.19;;;7.89;40.63
24892;BME280;12954;50.688;10.908;2023-04-07T09:51:53;95525.22;;;7.98;40.80
24892;BME280;12954;50.688;10.908;2023-04-07T09:54:33;95518.53;;;8.05;40.48
24892;BME280;12954;50.688;10.908;2023-04-07T09:57:02;95529.84;;;8.17;40.18
24892;BME280;12954;50.688;10.908;2023-04-07T09:59:33;95534.44;;;8.27;39.95
24892;BME280;12954;50.688;10.908;2023-04-07T10:02:03;95528.00;;;8.38;39.86
24892;BME280;12954;50.688;10.908;2023-04-07T10:04:32;95514.84;;;8.42;39.42
24892;BME280;12954;50.688;10.908;2023-04-07T10:07:00;95518.03;;;8.54;38.17
24892;BME280;12954;50.688;10.908;2023-04-07T10:09:29;95513.50;;;8.44;38.45
24892;BME280;12954;50.688;10.908;2023-04-07T10:11:58;95528.56;;;8.75;38.42
24892;BME280;12954;50.688;10.908;2023-04-07T10:14:29;95526.13;;;8.89;38.11
24892;BME280;12954;50.688;10.908;2023-04-07T10:16:59;95520.72;;;8.99;38.04
24892;BME280;12954;50.688;10.908;2023-04-07T10:19:30;95523.72;;;9.18;36.39
24892;BME280;12954;50.688;10.908;2023-04-07T10:22:01;95529.34;;;9.16;36.64
24892;BME280;12954;50.688;10.908;2023-04-07T10:24:45;95526.66;;;9.26;36.81
24892;BME280;12954;50.688;10.908;2023-04-07T10:27:21;95516.09;;;9.40;36.64
24892;BME280;12954;50.688;10.908;2023-04-07T10:29:51;95519.84;;;9.49;36.73
24892;BME280;12954;50.688;10.908;2023-04-07T10:32:24;95526.81;;;9.60;36.57
24892;BME280;12954;50.688;10.908;2023-04-07T10:34:59;95518.44;;;9.67;36.49
24892;BME280;12954;50.688;10.908;2023-04-07T10:37:28;95517.38;;;9.68;36.23
24892;BME280;12954;50.688;10.908;2023-04-07T10:43:01;95513.63;;;9.54;35.19
24892;BME280;12954;50.688;10.908;2023-04-07T10:45:51;95519.78;;;9.69;35.11
24892;BME280;12954;50.688;10.908;2023-04-07T10:48:22;95525.06;;;9.89;33.75
24892;BME280;12954;50.688;10.908;2023-04-07T10:51:15;95527.25;;;9.87;33.55
24892;BME280;12954;50.688;10.908;2023-04-07T10:57:09;95516.50;;;9.77;32.66
24892;BME280;12954;50.688;10.908;2023-04-07T10:59:41;95521.41;;;9.70;33.40
24892;BME280;12954;50.688;10.908;2023-04-07T11:02:32;95525.41;;;9.78;33.92
24892;BME280;12954;50.688;10.908;2023-04-07T11:05:03;95517.84;;;9.85;34.16
24892;BME280;12954;50.688;10.908;2023-04-07T11:07:49;95519.38;;;9.96;33.79
24892;BME280;12954;50.688;10.908;2023-04-07T11:10:17;95524.47;;;10.02;34.23
24892;BME280;12954;50.688;10.908;2023-04-07T11:12:58;95515.78;;;10.16;33.76
24892;BME280;12954;50.688;10.908;2023-04-07T11:15:27;95532.47;;;10.23;34.08
24892;BME280;12954;50.688;10.908;2023-04-07T11:18:13;95508.66;;;10.30;33.34
24892;BME280;12954;50.688;10.908;2023-04-07T11:20:46;95522.28;;;10.53;33.41
24892;BME280;12954;50.688;10.908;2023-04-07T11:23:16;95507.69;;;10.59;33.50
24892;BME280;12954;50.688;10.908;2023-04-07T11:25:51;95519.94;;;10.81;32.99
24892;BME280;12954;50.688;10.908;2023-04-07T11:28:19;95514.47;;;10.91;32.27
24892;BME280;12954;50.688;10.908;2023-04-07T11:30:49;95518.50;;;10.88;31.92
24892;BME280;12954;50.688;10.908;2023-04-07T11:33:19;95499.97;;;10.82;31.68
24892;BME280;12954;50.688;10.908;2023-04-07T11:35:51;95511.09;;;10.75;32.00
24892;BME280;12954;50.688;10.908;2023-04-07T11:38:24;95513.97;;;10.84;31.55
24892;BME280;12954;50.688;10.908;2023-04-07T11:40:53;95508.34;;;10.80;31.92
24892;BME280;12954;50.688;10.908;2023-04-07T11:43:23;95512.84;;;10.90;32.31
24892;BME280;12954;50.688;10.908;2023-04-07T11:46:03;95486.94;;;10.89;32.19
24892;BME280;12954;50.688;10.908;2023-04-07T11:48:33;95501.53;;;11.17;31.64
24892;BME280;12954;50.688;10.908;2023-04-07T11:51:04;95498.25;;;11.20;31.06
24892;BME280;12954;50.688;10.908;2023-04-07T11:53:34;95497.75;;;11.18;30.64
24892;BME280;12954;50.688;10.908;2023-04-07T11:56:06;95507.59;;;11.03;31.62
24892;BME280;12954;50.688;10.908;2023-04-07T11:58:36;95508.63;;;11.07;31.38
24892;BME280;12954;50.688;10.908;2023-04-07T12:01:05;95503.47;;;11.11;31.43
24892;BME280;12954;50.688;10.908;2023-04-07T12:03:36;95508.44;;;11.28;31.23
24892;BME280;12954;50.688;10.908;2023-04-07T12:06:06;95487.31;;;11.35;31.20
24892;BME280;12954;50.688;10.908;2023-04-07T12:08:39;95511.41;;;11.55;31.22
24892;BME280;12954;50.688;10.908;2023-04-07T12:11:08;95500.53;;;11.60;31.29
24892;BME280;12954;50.688;10.908;2023-04-07T12:13:37;95512.22;;;11.79;30.67
24892;BME280;12954;50.688;10.908;2023-04-07T12:16:05;95516.66;;;11.70;30.76
24892;BME280;12954;50.688;10.908;2023-04-07T12:18:34;95510.31;;;11.80;30.56
24892;BME280;12954;50.688;10.908;2023-04-07T12:21:02;95511.66;;;11.82;30.04
24892;BME280;12954;50.688;10.908;2023-04-07T12:23:32;95507.91;;;11.78;30.14
24892;BME280;12954;50.688;10.908;2023-04-07T12:26:01;95520.34;;;11.79;30.17
24892;BME280;12954;50.688;10.908;2023-04-07T12:28:29;95463.69;;;11.69;28.69
24892;BME280;12954;50.688;10.908;2023-04-07T12:30:58;95510.59;;;11.78;29.10
24892;BME280;12954;50.688;10.908;2023-04-07T12:33:26;95506.28;;;11.77;28.92
24892;BME280;12954;50.688;10.908;2023-04-07T12:35:55;95477.53;;;11.62;28.26
24892;BME280;12954;50.688;10.908;2023-04-07T12:38:24;95513.41;;;11.68;28.37
24892;BME280;12954;50.688;10.908;2023-04-07T12:40:54;95507.78;;;11.41;29.19
24892;BME280;12954;50.688;10.908;2023-04-07T12:43:29;95512.59;;;11.44;28.95
24892;BME280;12954;50.688;10.908;2023-04-07T12:45:57;95504.69;;;11.24;28.90
24892;BME280;12954;50.688;10.908;2023-04-07T12:48:26;95509.66;;;11.40;29.16
24892;BME280;12954;50.688;10.908;2023-04-07T12:50:54;95507.84;;;11.59;28.90
24892;BME280;12954;50.688;10.908;2023-04-07T12:53:22;95493.81;;;11.57;28.98
24892;BME280;12954;50.688;10.908;2023-04-07T12:55:51;95512.59;;;11.67;29.50
24892;BME280;12954;50.688;10.908;2023-04-07T12:58:21;95511.00;;;11.90;29.25
24892;BME280;12954;50.688;10.908;2023-04-07T13:00:50;95513.72;;;12.09;29.04
24892;BME280;12954;50.688;10.908;2023-04-07T13:03:19;95508.75;;;12.16;28.38
24892;BME280;12954;50.688;10.908;2023-04-07T13:05:48;95509.56;;;12.16;28.25
24892;BME280;12954;50.688;10.908;2023-04-07T13:08:17;95463.50;;;11.84;28.12
24892;BME280;12954;50.688;10.908;2023-04-07T13:10:45;95511.97;;;11.99;28.44
24892;BME280;12954;50.688;10.908;2023-04-07T13:13:13;95518.63;;;12.07;28.11
24892;BME280;12954;50.688;10.908;2023-04-07T13:15:43;95481.69;;;11.79;28.56
24892;BME280;12954;50.688;10.908;2023-04-07T13:18:12;95505.41;;;12.05;28.94
24892;BME280;12954;50.688;10.908;2023-04-07T13:20:40;95507.00;;;12.25;28.59
24892;BME280;12954;50.688;10.908;2023-04-07T13:23:16;95505.13;;;12.25;28.42